Time;durP1;ratioP1;P1;durP2;ratioP2;P2;SDS_P1;SDS_P2;PMS_P1;PMS_P2;Temp;Humidity;BMP_temperature;BMP_pressure;BME280_temperature;BME280_humidity;BME280_pressure;Samples;Min_cycle;Max_cycle;Signal;HPM_P1;HPM_P2
2023/06/18 00:00:50;;;;;;;38.95;30.23;;;15.20;99.90;;;;;;5040735;28;20056;-73
2023/06/18 00:03:16;;;;;;;39.20;29.70;;;15.10;99.90;;;;;;5044017;28;20115;-74
2023/06/18 00:05:42;;;;;;;41.70;31.83;;;15.10;99.90;;;;;;5048093;28;20076;-73
2023/06/18 00:08:08;;;;;;;43.17;30.95;;;15.10;99.90;;;;;;5042159;28;20045;-73
2023/06/18 00:10:33;;;;;;;45.67;31.63;;;15.10;99.90;;;;;;5044166;28;20160;-75
2023/06/18 00:12:59;;;;;;;46.25;31.38;;;15.10;99.90;;;;;;5042500;28;20415;-73
2023/06/18 00:15:25;;;;;;;42.40;31.48;;;15.10;99.90;;;;;;5045608;28;20041;-74
2023/06/18 00:17:51;;;;;;;46.13;32.60;;;15.00;99.90;;;;;;5045373;28;20099;-74
2023/06/18 00:20:16;;;;;;;44.75;32.15;;;15.00;99.90;;;;;;5063045;28;20558;-74
2023/06/18 00:22:44;;;;;;;42.40;30.88;;;15.00;99.90;;;;;;5061044;28;20167;-74
2023/06/18 00:25:09;;;;;;;40.28;31.42;;;14.90;99.90;;;;;;5015111;28;20125;-71
2023/06/18 00:27:35;;;;;;;44.00;30.65;;;14.90;99.90;;;;;;5060732;28;20080;-74
2023/06/18 00:30:01;;;;;;;41.03;30.83;;;15.00;99.90;;;;;;5063688;28;20041;-76
2023/06/18 00:32:28;;;;;;;41.53;31.20;;;15.00;99.90;;;;;;5041048;28;20037;-73
2023/06/18 00:34:54;;;;;;;39.90;31.23;;;14.90;99.90;;;;;;5045692;28;20037;-74
2023/06/18 00:37:20;;;;;;;40.20;30.15;;;14.90;99.90;;;;;;5061699;28;20173;-74
2023/06/18 00:39:46;;;;;;;49.45;33.05;;;14.90;99.90;;;;;;5029572;28;20040;-75
2023/06/18 00:42:12;;;;;;;44.20;32.65;;;14.90;99.90;;;;;;5042318;28;20060;-75
2023/06/18 00:44:40;;;;;;;41.72;32.30;;;14.90;99.90;;;;;;5026227;28;20419;-75
2023/06/18 00:47:07;;;;;;;46.33;34.22;;;14.90;99.90;;;;;;5031266;28;20479;-75
2023/06/18 00:49:33;;;;;;;45.38;33.92;;;14.90;99.90;;;;;;5064996;28;20538;-75
2023/06/18 00:52:00;;;;;;;42.67;31.85;;;14.90;99.90;;;;;;5060068;28;20177;-75
2023/06/18 00:54:29;;;;;;;46.03;33.13;;;14.90;99.90;;;;;;5060684;28;20056;-74
2023/06/18 00:56:59;;;;;;;46.92;33.97;;;14.90;99.90;;;;;;5056635;28;20199;-75
2023/06/18 00:59:27;;;;;;;46.83;32.65;;;14.90;99.90;;;;;;5061666;28;20045;-73
2023/06/18 01:01:54;;;;;;;41.97;32.30;;;14.80;99.90;;;;;;5060887;28;20037;-73
2023/06/18 01:04:22;;;;;;;45.60;33.38;;;14.90;99.90;;;;;;5041682;28;20049;-73
2023/06/18 01:06:53;;;;;;;44.63;32.50;;;14.90;99.90;;;;;;5057583;28;20040;-74
2023/06/18 01:09:21;;;;;;;42.33;32.60;;;14.90;99.90;;;;;;5059785;28;20049;-75
2023/06/18 01:11:53;;;;;;;46.35;34.50;;;14.80;99.90;;;;;;5059014;28;20484;-74
2023/06/18 01:14:21;;;;;;;44.13;31.98;;;14.80;99.90;;;;;;5059384;28;20207;-75
2023/06/18 01:16:49;;;;;;;45.83;33.25;;;14.80;99.90;;;;;;5042151;28;20032;-74
2023/06/18 01:19:49;;;;;;;49.00;32.80;;;14.80;99.90;;;;;;5060266;28;20097;-74
2023/06/18 01:22:40;;;;;;;50.97;36.17;;;14.80;99.90;;;;;;5022599;28;20056;-74
2023/06/18 01:25:08;;;;;;;46.95;33.53;;;14.70;99.90;;;;;;5059951;28;20045;-74
2023/06/18 01:27:40;;;;;;;46.20;32.65;;;14.70;99.90;;;;;;5043046;28;20045;-74
2023/06/18 01:30:11;;;;;;;44.45;33.10;;;14.70;99.90;;;;;;5062504;28;20064;-76
2023/06/18 01:32:40;;;;;;;45.58;34.65;;;14.70;99.90;;;;;;5045582;28;20293;-75
2023/06/18 01:35:08;;;;;;;50.03;35.05;;;14.70;99.90;;;;;;5061134;28;20056;-75
2023/06/18 01:37:41;;;;;;;48.72;33.22;;;14.70;99.90;;;;;;5030709;28;20496;-75
2023/06/18 01:40:27;;;;;;;;;;;14.70;99.90;;;;;;5059066;28;20055;-75
2023/06/18 01:43:07;;;;;;;48.05;33.92;;;14.70;99.90;;;;;;5018321;28;19931;-75
2023/06/18 01:45:46;;;;;;;48.83;34.08;;;14.70;99.90;;;;;;5058322;28;20512;-75
2023/06/18 01:48:18;;;;;;;47.22;34.47;;;14.70;99.90;;;;;;5061442;28;20037;-76
2023/06/18 01:50:46;;;;;;;47.22;32.67;;;14.60;99.90;;;;;;5062545;28;20093;-75
2023/06/18 01:53:16;;;;;;;48.30;32.78;;;14.60;99.90;;;;;;5037276;28;20051;-75
2023/06/18 01:55:47;;;;;;;46.60;31.95;;;14.60;99.90;;;;;;5030693;28;20048;-76
2023/06/18 01:58:13;;;;;;;45.13;32.63;;;14.60;99.90;;;;;;5059732;28;20052;-75
2023/06/18 02:00:40;;;;;;;45.15;32.28;;;14.60;99.90;;;;;;5039843;28;20041;-75
2023/06/18 02:03:06;;;;;;;47.28;34.83;;;14.60;99.90;;;;;;5060665;28;20060;-75
2023/06/18 02:05:31;;;;;;;48.88;32.95;;;14.50;99.90;;;;;;5059481;28;20060;-75
2023/06/18 02:07:57;;;;;;;46.88;33.05;;;14.50;99.90;;;;;;5061144;28;20051;-75
2023/06/18 02:10:23;;;;;;;33.83;27.00;;;14.50;99.90;;;;;;5042997;28;20037;-75
2023/06/18 02:12:48;;;;;;;41.40;30.25;;;14.50;99.90;;;;;;5057455;28;20121;-75
2023/06/18 02:15:14;;;;;;;42.35;30.55;;;14.50;99.90;;;;;;5060701;28;20037;-74
2023/06/18 02:17:40;;;;;;;42.17;31.33;;;14.50;99.90;;;;;;5059944;28;20445;-74
2023/06/18 02:20:08;;;;;;;42.50;31.02;;;14.50;99.90;;;;;;5063088;28;20526;-74
2023/06/18 02:22:34;;;;;;;40.28;29.85;;;14.40;99.90;;;;;;5043826;28;20565;-74
2023/06/18 02:25:01;;;;;;;40.33;28.45;;;14.40;99.90;;;;;;5024100;28;20044;-75
2023/06/18 02:27:27;;;;;;;38.75;28.15;;;14.40;99.90;;;;;;5060236;28;20037;-74
2023/06/18 02:29:52;;;;;;;36.33;27.52;;;14.40;99.90;;;;;;5060454;28;20048;-74
2023/06/18 02:32:18;;;;;;;38.83;29.75;;;14.30;99.90;;;;;;5042447;28;20037;-74
2023/06/18 02:34:43;;;;;;;40.05;28.70;;;14.30;99.90;;;;;;5055776;28;20169;-75
2023/06/18 02:37:09;;;;;;;35.72;27.25;;;14.30;99.90;;;;;;5040742;28;20052;-75
2023/06/18 02:39:35;;;;;;;37.38;25.88;;;14.20;99.90;;;;;;5054795;28;20073;-74
2023/06/18 02:42:01;;;;;;;31.55;23.75;;;14.30;99.90;;;;;;5063250;28;20500;-74
2023/06/18 02:44:28;;;;;;;32.63;24.13;;;14.20;99.90;;;;;;5036435;28;20380;-74
2023/06/18 02:46:55;;;;;;;47.85;23.48;;;14.10;99.90;;;;;;5060363;28;20055;-74
2023/06/18 02:49:21;;;;;;;37.58;23.20;;;14.10;99.90;;;;;;5041394;28;20075;-73
2023/06/18 02:51:47;;;;;;;28.52;20.98;;;14.10;99.90;;;;;;5061725;28;20040;-73
2023/06/18 02:54:13;;;;;;;31.90;23.30;;;14.10;99.90;;;;;;5054453;28;20036;-74
2023/06/18 02:56:39;;;;;;;32.17;24.48;;;14.10;99.90;;;;;;5056520;28;20173;-73
2023/06/18 02:59:05;;;;;;;39.17;27.83;;;14.00;99.90;;;;;;5058847;28;20047;-73
2023/06/18 03:01:31;;;;;;;34.85;26.20;;;14.00;99.90;;;;;;5027356;28;20041;-74
2023/06/18 03:03:58;;;;;;;42.50;29.25;;;14.00;99.90;;;;;;5038117;28;20047;-74
2023/06/18 03:06:24;;;;;;;39.30;29.05;;;14.00;99.90;;;;;;5062444;28;20167;-75
2023/06/18 03:08:50;;;;;;;49.45;31.58;;;14.00;99.90;;;;;;5063526;28;20131;-74
2023/06/18 03:11:15;;;;;;;38.80;28.25;;;14.00;99.90;;;;;;5038161;28;20114;-75
2023/06/18 03:13:44;;;;;;;38.33;29.52;;;14.00;99.90;;;;;;5040873;28;20072;-75
2023/06/18 03:16:09;;;;;;;39.38;27.50;;;14.10;99.90;;;;;;5060108;28;20558;-75
2023/06/18 03:18:35;;;;;;;40.95;28.70;;;14.10;99.90;;;;;;5026562;28;20052;-75
2023/06/18 03:21:01;;;;;;;39.78;28.67;;;14.10;99.90;;;;;;5058077;28;20036;-75
2023/06/18 03:23:26;;;;;;;45.30;28.27;;;14.20;99.90;;;;;;5056688;28;20040;-75
2023/06/18 03:25:52;;;;;;;35.90;28.13;;;14.20;99.90;;;;;;5057169;28;20044;-75
2023/06/18 03:28:18;;;;;;;35.42;25.77;;;14.20;99.90;;;;;;5055293;28;20045;-74
2023/06/18 03:30:44;;;;;;;43.83;27.98;;;14.20;99.90;;;;;;5056287;28;20079;-74
2023/06/18 03:33:10;;;;;;;36.17;26.42;;;14.20;99.90;;;;;;5021509;28;20040;-74
2023/06/18 03:35:36;;;;;;;32.03;25.27;;;14.20;99.90;;;;;;5057167;28;20138;-75
2023/06/18 03:38:03;;;;;;;32.95;26.73;;;14.20;99.90;;;;;;5058437;28;20037;-75
2023/06/18 03:40:29;;;;;;;36.53;26.08;;;14.20;99.90;;;;;;5060388;28;20044;-75
2023/06/18 03:42:55;;;;;;;38.08;26.02;;;14.20;99.90;;;;;;5057271;28;20066;-75
2023/06/18 03:45:21;;;;;;;33.60;25.70;;;14.30;99.90;;;;;;5058390;28;20041;-74
2023/06/18 04:29:05;;;;;;;52.65;33.88;;;15.00;99.90;;;;;;5046111;28;20048;-71
2023/06/18 04:31:30;;;;;;;47.17;32.75;;;15.00;99.90;;;;;;5014773;28;20427;-72
2023/06/18 04:33:56;;;;;;;56.20;35.65;;;15.10;99.90;;;;;;5013009;28;20410;-71
2023/06/18 04:36:22;;;;;;;55.67;33.80;;;15.00;99.90;;;;;;5044081;28;20119;-71
2023/06/18 04:38:47;;;;;;;50.67;34.78;;;15.00;99.90;;;;;;5043978;28;20099;-70
2023/06/18 04:41:13;;;;;;;53.53;34.92;;;15.00;99.90;;;;;;5043312;28;20069;-72
2023/06/18 04:43:38;;;;;;;51.28;33.45;;;14.90;99.90;;;;;;5047328;28;20052;-70
2023/06/18 04:46:04;;;;;;;52.80;33.75;;;15.00;99.90;;;;;;5033241;28;20040;-71
2023/06/18 04:48:30;;;;;;;45.95;32.42;;;15.00;99.90;;;;;;5051241;28;20040;-70
2023/06/18 04:50:56;;;;;;;46.72;32.53;;;15.00;99.90;;;;;;5039117;28;20452;-72
2023/06/18 04:53:21;;;;;;;47.00;33.50;;;15.00;99.90;;;;;;5043345;28;20476;-71
2023/06/18 04:55:47;;;;;;;49.13;33.42;;;15.00;99.90;;;;;;5028671;28;20123;-71
2023/06/18 04:58:13;;;;;;;46.28;32.08;;;15.10;99.90;;;;;;5037687;28;20511;-71
2023/06/18 05:00:38;;;;;;;48.85;33.28;;;15.00;99.90;;;;;;5043257;28;20529;-71
2023/06/18 05:03:04;;;;;;;46.50;32.38;;;15.00;99.90;;;;;;5040148;28;20852;-71
2023/06/18 05:05:30;;;;;;;49.15;32.80;;;15.00;99.90;;;;;;5042695;28;20511;-71
2023/06/18 05:07:56;;;;;;;42.28;31.85;;;15.10;99.90;;;;;;5043549;28;20397;-71
2023/06/18 05:10:22;;;;;;;43.95;31.23;;;15.10;99.90;;;;;;5044134;28;20136;-72
2023/06/18 05:12:47;;;;;;;47.78;33.33;;;15.20;99.90;;;;;;5047643;28;20171;-71
2023/06/18 05:15:13;;;;;;;47.97;32.35;;;15.20;99.90;;;;;;5044627;28;20045;-71
2023/06/18 05:17:39;;;;;;;49.75;33.22;;;15.20;99.90;;;;;;5045456;28;20041;-71
2023/06/18 05:20:06;;;;;;;50.20;34.00;;;15.40;99.90;;;;;;5047350;28;20052;-72
2023/06/18 05:22:33;;;;;;;44.30;31.98;;;15.50;99.90;;;;;;5035755;28;20041;-72
2023/06/18 05:24:59;;;;;;;47.55;32.65;;;15.50;99.90;;;;;;5044905;28;20067;-72
2023/06/18 05:27:28;;;;;;;53.30;34.45;;;15.60;99.90;;;;;;5043446;28;20037;-72
2023/06/18 05:29:54;;;;;;;48.97;32.63;;;15.60;99.90;;;;;;5057341;28;20049;-72
2023/06/18 05:32:20;;;;;;;48.92;32.97;;;15.70;99.90;;;;;;5043727;28;20087;-71
2023/06/18 05:34:45;;;;;;;45.10;32.90;;;15.80;99.90;;;;;;5045843;28;20447;-71
2023/06/18 05:37:11;;;;;;;46.67;32.47;;;15.80;99.90;;;;;;5054421;28;20049;-71
2023/06/18 05:39:37;;;;;;;45.80;32.47;;;16.00;99.90;;;;;;5046008;28;20041;-72
2023/06/18 05:42:03;;;;;;;46.10;32.28;;;16.00;99.90;;;;;;5041534;28;20077;-72
2023/06/18 05:44:29;;;;;;;47.08;31.15;;;16.10;99.90;;;;;;5045438;28;20557;-72
2023/06/18 05:46:54;;;;;;;44.95;30.67;;;16.20;99.90;;;;;;5045337;28;20045;-72
2023/06/18 05:49:21;;;;;;;38.63;29.35;;;16.20;99.90;;;;;;5044157;28;20041;-71
2023/06/18 05:51:47;;;;;;;42.05;30.55;;;16.30;99.90;;;;;;5023088;28;20075;-72
2023/06/18 05:54:13;;;;;;;42.08;30.42;;;16.40;99.90;;;;;;5035960;28;20120;-72
2023/06/18 05:56:38;;;;;;;42.00;29.92;;;16.50;99.90;;;;;;5019845;28;20048;-72
2023/06/18 05:59:04;;;;;;;40.08;29.40;;;16.50;99.90;;;;;;5047453;28;20048;-72
2023/06/18 06:01:33;;;;;;;38.22;29.30;;;16.50;99.90;;;;;;5038151;28;20495;-71
2023/06/18 06:03:59;;;;;;;37.72;29.33;;;16.50;99.90;;;;;;5045773;28;20051;-71
2023/06/18 06:06:25;;;;;;;37.03;29.80;;;16.50;99.90;;;;;;5045732;28;20072;-71
2023/06/18 06:08:52;;;;;;;40.22;29.17;;;16.60;99.90;;;;;;5038125;28;20451;-71
2023/06/18 06:11:17;;;;;;;42.13;30.13;;;16.60;99.90;;;;;;5039005;28;20527;-71
2023/06/18 06:13:43;;;;;;;42.58;29.65;;;16.60;99.90;;;;;;5039337;28;20052;-71
2023/06/18 06:16:09;;;;;;;38.83;28.60;;;16.60;99.90;;;;;;5038217;28;20183;-71
2023/06/18 06:18:34;;;;;;;35.70;28.15;;;16.70;99.90;;;;;;5021497;28;20204;-72
2023/06/18 06:21:00;;;;;;;43.63;29.05;;;16.80;99.90;;;;;;5041053;28;20095;-72
2023/06/18 06:23:26;;;;;;;39.38;29.60;;;16.80;99.90;;;;;;5026663;28;20041;-72
2023/06/18 06:25:51;;;;;;;38.15;30.38;;;17.00;99.90;;;;;;5041060;28;20041;-72
2023/06/18 06:28:17;;;;;;;40.03;28.15;;;17.10;99.90;;;;;;5056934;28;20040;-72
2023/06/18 06:30:43;;;;;;;39.92;28.92;;;17.30;99.90;;;;;;5055684;28;20114;-71
2023/06/18 06:33:08;;;;;;;39.47;29.17;;;17.60;99.90;;;;;;5046786;28;20601;-72
2023/06/18 06:35:34;;;;;;;39.97;29.38;;;17.70;99.90;;;;;;5053552;28;20143;-72
2023/06/18 06:38:00;;;;;;;40.42;28.45;;;17.90;99.90;;;;;;5028617;28;20069;-71
2023/06/18 06:40:26;;;;;;;39.30;29.27;;;17.90;99.90;;;;;;5045820;28;20642;-72
2023/06/18 06:42:51;;;;;;;35.70;27.45;;;17.90;99.90;;;;;;5060700;28;20073;-72
2023/06/18 06:45:17;;;;;;;41.13;29.25;;;17.90;99.90;;;;;;5039506;28;20036;-71
2023/06/18 06:47:43;;;;;;;36.88;27.25;;;17.90;99.90;;;;;;5048670;28;20055;-71
2023/06/18 06:50:08;;;;;;;40.55;28.67;;;17.90;99.90;;;;;;5059370;28;20033;-71
2023/06/18 06:52:34;;;;;;;40.22;29.15;;;17.90;99.90;;;;;;5045435;28;20646;-72
2023/06/18 06:55:00;;;;;;;37.28;27.83;;;18.00;99.90;;;;;;5063433;28;20338;-71
2023/06/18 06:57:25;;;;;;;35.85;27.48;;;18.10;99.90;;;;;;5042448;28;20399;-72
2023/06/18 06:59:52;;;;;;;37.00;27.58;;;18.10;99.90;;;;;;5052535;28;20051;-71
2023/06/18 07:02:18;;;;;;;38.33;29.67;;;18.10;99.90;;;;;;5058688;28;20048;-71
2023/06/18 07:04:47;;;;;;;38.83;27.70;;;18.20;99.90;;;;;;5061550;28;20495;-74
2023/06/18 07:07:14;;;;;;;36.72;27.73;;;18.20;99.90;;;;;;5063175;28;20384;-74
2023/06/18 07:09:39;;;;;;;38.08;27.50;;;18.20;99.90;;;;;;5064908;28;20158;-70
2023/06/18 07:12:05;;;;;;;37.20;28.65;;;18.20;99.90;;;;;;5063738;28;20129;-72
2023/06/18 07:14:31;;;;;;;38.22;27.42;;;18.30;99.90;;;;;;5067181;28;20041;-72
2023/06/18 07:16:58;;;;;;;34.50;26.50;;;18.40;99.90;;;;;;5060081;28;20044;-72
2023/06/18 07:19:23;;;;;;;38.03;27.25;;;18.50;99.90;;;;;;5062488;28;20422;-72
2023/06/18 07:21:50;;;;;;;40.10;26.63;;;18.60;99.90;;;;;;5047282;28;20041;-72
2023/06/18 07:24:16;;;;;;;33.45;26.77;;;18.90;99.90;;;;;;5060667;28;20087;-72
2023/06/18 07:26:42;;;;;;;32.17;25.15;;;19.10;99.90;;;;;;5046707;28;20127;-72
2023/06/18 07:29:08;;;;;;;35.08;25.85;;;19.30;99.90;;;;;;5056933;28;20044;-74
2023/06/18 07:31:34;;;;;;;32.90;25.30;;;19.50;99.90;;;;;;5031098;28;20051;-72
2023/06/18 07:34:00;;;;;;;37.80;26.75;;;19.70;99.90;;;;;;5031305;28;20072;-72
2023/06/18 07:36:26;;;;;;;32.13;24.80;;;19.80;99.90;;;;;;5047307;28;20059;-73
2023/06/18 07:38:51;;;;;;;28.92;24.88;;;19.90;99.90;;;;;;5029334;28;20061;-74
2023/06/18 07:41:17;;;;;;;34.83;25.98;;;20.00;99.90;;;;;;5048479;28;20036;-73
2023/06/18 07:43:43;;;;;;;31.95;24.25;;;20.10;99.90;;;;;;5063745;28;20414;-73
2023/06/18 07:46:09;;;;;;;31.58;24.98;;;20.30;99.90;;;;;;5046902;28;20044;-74
2023/06/18 07:48:35;;;;;;;34.47;25.10;;;20.40;99.90;;;;;;5048590;28;20062;-72
2023/06/18 07:51:00;;;;;;;32.53;26.35;;;20.50;99.90;;;;;;5047577;28;20044;-72
2023/06/18 07:53:26;;;;;;;33.30;24.52;;;20.50;99.90;;;;;;5049072;28;20063;-73
2023/06/18 07:55:52;;;;;;;32.75;24.95;;;20.60;99.90;;;;;;5063736;28;20056;-74
2023/06/18 07:58:17;;;;;;;31.20;24.50;;;20.60;99.90;;;;;;5028186;28;20081;-73
2023/06/18 08:00:43;;;;;;;30.52;24.65;;;20.60;99.90;;;;;;5056773;28;20048;-73
2023/06/18 08:03:08;;;;;;;31.10;23.42;;;20.70;99.90;;;;;;5066166;28;20040;-72
2023/06/18 08:05:34;;;;;;;29.88;23.63;;;20.60;99.90;;;;;;5030064;28;20529;-72
2023/06/18 08:08:00;;;;;;;30.20;23.42;;;20.70;99.90;;;;;;5047137;28;20053;-72
2023/06/18 08:10:25;;;;;;;31.35;23.33;;;20.70;99.90;;;;;;5041522;28;20044;-73
2023/06/18 08:12:51;;;;;;;28.25;22.65;;;20.80;99.90;;;;;;5058434;28;20147;-73
2023/06/18 08:15:17;;;;;;;31.85;24.10;;;20.90;99.90;;;;;;5045367;28;20052;-73
2023/06/18 08:17:42;;;;;;;28.63;23.52;;;21.10;99.90;;;;;;5068740;28;20033;-74
2023/06/18 08:20:08;;;;;;;29.27;23.17;;;21.30;99.90;;;;;;5063927;28;20059;-72
2023/06/18 08:22:34;;;;;;;27.60;22.67;;;21.30;99.90;;;;;;5063228;28;20124;-74
2023/06/18 08:24:59;;;;;;;29.17;22.58;;;21.40;99.90;;;;;;5054606;28;20045;-74
2023/06/18 08:27:25;;;;;;;31.15;23.45;;;21.50;99.90;;;;;;5071504;28;20430;-73
2023/06/18 08:29:51;;;;;;;29.02;23.55;;;21.60;99.90;;;;;;5063925;28;20168;-73
2023/06/18 08:32:16;;;;;;;31.05;24.17;;;21.60;99.90;;;;;;5043136;28;20049;-72
2023/06/18 08:34:42;;;;;;;28.90;22.98;;;21.70;99.90;;;;;;5067127;28;20040;-72
2023/06/18 08:37:09;;;;;;;28.45;22.50;;;21.80;99.90;;;;;;5042591;28;20049;-73
2023/06/18 08:39:36;;;;;;;27.23;21.88;;;22.00;99.90;;;;;;5062671;28;20109;-73
2023/06/18 08:42:02;;;;;;;24.33;21.10;;;22.20;99.90;;;;;;5041670;28;20739;-73
2023/06/18 08:44:33;;;;;;;26.58;21.35;;;22.40;99.90;;;;;;5066677;28;20040;-72
2023/06/18 08:47:03;;;;;;;28.00;21.65;;;22.60;99.90;;;;;;5066001;28;20036;-73
2023/06/18 08:49:32;;;;;;;26.42;22.67;;;22.70;99.90;;;;;;5065786;28;20048;-72
2023/06/18 08:52:02;;;;;;;26.92;21.25;;;22.80;99.90;;;;;;5051817;28;20528;-74
2023/06/18 08:54:32;;;;;;;25.30;19.35;;;22.90;99.90;;;;;;5035533;28;20040;-74
2023/06/18 08:57:13;;;;;;;27.17;20.40;;;22.90;99.90;;;;;;5047801;28;20496;-74
2023/06/18 08:59:39;;;;;;;23.58;18.55;;;23.10;99.90;;;;;;5063237;28;20041;-74
2023/06/18 09:02:05;;;;;;;23.52;19.27;;;23.40;99.90;;;;;;5050727;28;20062;-74
2023/06/18 09:04:35;;;;;;;22.73;17.25;;;23.50;99.90;;;;;;5067193;28;20044;-74
2023/06/18 09:07:02;;;;;;;24.63;18.67;;;23.70;99.90;;;;;;5063560;28;20147;-74
2023/06/18 09:09:29;;;;;;;20.65;17.13;;;23.70;99.90;;;;;;5065366;28;20103;-74
2023/06/18 09:11:58;;;;;;;22.45;15.93;;;23.90;99.90;;;;;;5049071;28;20451;-74
2023/06/18 09:14:24;;;;;;;18.27;15.82;;;24.00;99.90;;;;;;5069296;28;20180;-73
2023/06/18 09:16:52;;;;;;;21.48;16.38;;;24.10;99.90;;;;;;5065406;28;20057;-73
2023/06/18 09:19:20;;;;;;;18.25;14.18;;;24.30;99.90;;;;;;5046306;28;20389;-74
2023/06/18 09:21:46;;;;;;;19.98;16.15;;;24.50;99.90;;;;;;5050745;28;20115;-76
2023/06/18 09:24:16;;;;;;;20.13;15.07;;;24.70;99.90;;;;;;5048703;28;20037;-76
2023/06/18 09:26:42;;;;;;;16.67;13.60;;;25.00;99.90;;;;;;5045916;28;20049;-76
2023/06/18 09:29:09;;;;;;;19.15;12.38;;;25.30;99.90;;;;;;5049188;28;20106;-76
2023/06/18 09:31:37;;;;;;;17.35;11.40;;;25.50;99.90;;;;;;5066372;28;20041;-77
2023/06/18 09:34:12;;;;;;;17.08;12.90;;;25.80;99.90;;;;;;5065286;28;20076;-76
2023/06/18 09:36:40;;;;;;;14.57;11.95;;;25.80;99.90;;;;;;5043726;28;20049;-77
2023/06/18 09:39:24;;;;;;;15.55;11.82;;;25.70;99.90;;;;;;5062743;28;20550;-77
2023/06/18 09:41:53;;;;;;;16.00;12.02;;;25.50;99.90;;;;;;5066448;28;20047;-76
2023/06/18 09:44:20;;;;;;;13.63;11.30;;;25.40;99.90;;;;;;5062242;28;20047;-75
2023/06/18 09:46:48;;;;;;;12.68;11.20;;;25.30;99.90;;;;;;5064668;28;20037;-75
2023/06/18 09:49:16;;;;;;;12.15;10.40;;;25.20;99.90;;;;;;5066009;28;20126;-75
2023/06/18 09:51:42;;;;;;;13.52;10.35;;;25.20;99.90;;;;;;5067114;28;20049;-76
2023/06/18 09:54:08;;;;;;;15.98;10.05;;;25.30;99.90;;;;;;5061411;28;20132;-76
2023/06/18 09:56:35;;;;;;;19.10;11.70;;;25.30;99.90;;;;;;5051165;28;20170;-76
2023/06/18 09:59:03;;;;;;;15.90;10.80;;;25.30;99.90;;;;;;5029510;28;20048;-75
2023/06/18 10:01:43;;;;;;;14.23;10.00;;;25.30;99.90;;;;;;5047841;28;20522;-76
2023/06/18 10:04:08;;;;;;;14.52;10.40;;;25.30;99.90;;;;;;5040206;28;20029;-75
2023/06/18 10:06:37;;;;;;;13.60;11.13;;;25.30;99.90;;;;;;5048482;28;20045;-75
2023/06/18 10:09:05;;;;;;;15.43;10.25;;;25.30;99.90;;;;;;5063071;28;20048;-75
2023/06/18 10:11:31;;;;;;;12.75;9.50;;;25.30;99.90;;;;;;5048426;28;20182;-75
2023/06/18 10:14:08;;;;;;;12.70;9.65;;;25.40;99.90;;;;;;5062646;28;20079;-75
2023/06/18 10:16:36;;;;;;;15.07;10.02;;;25.40;99.90;;;;;;5031709;28;20379;-75
2023/06/18 10:19:25;;;;;;;13.05;9.85;;;25.50;99.90;;;;;;5056590;28;20052;-75
2023/06/18 10:21:57;;;;;;;11.38;9.23;;;25.70;99.90;;;;;;5060654;28;20096;-75
2023/06/18 10:24:46;;;;;;;14.15;10.07;;;25.90;99.90;;;;;;5035630;28;20044;-76
2023/06/18 10:27:13;;;;;;;11.82;9.43;;;26.00;99.90;;;;;;5047347;28;20045;-75
2023/06/18 10:29:39;;;;;;;12.82;10.07;;;26.10;99.90;;;;;;5039509;28;20041;-76
2023/06/18 10:32:05;;;;;;;12.20;9.80;;;26.20;99.90;;;;;;5042527;28;20102;-75
2023/06/18 10:34:32;;;;;;;11.65;9.52;;;26.20;99.90;;;;;;5039023;28;20534;-74
2023/06/18 10:36:59;;;;;;;10.80;9.07;;;26.30;99.90;;;;;;5041061;28;20040;-84
2023/06/18 10:39:26;;;;;;;14.27;8.32;;;26.50;99.90;;;;;;5025027;28;20028;-79
2023/06/18 10:41:52;;;;;;;11.85;9.25;;;26.60;99.90;;;;;;5041639;28;20048;-79
2023/06/18 10:44:33;;;;;;;10.93;8.57;;;26.70;99.90;;;;;;5046929;28;20044;-78
2023/06/18 10:47:22;;;;;;;11.40;9.23;;;26.70;99.90;;;;;;5031422;28;20040;-77
2023/06/18 10:50:03;;;;;;;10.25;9.07;;;26.70;99.90;;;;;;5047680;28;20044;-79
2023/06/18 10:52:31;;;;;;;17.50;10.15;;;26.70;99.90;;;;;;5025796;28;20044;-76
2023/06/18 10:55:27;;;;;;;12.18;9.10;;;26.70;99.90;;;;;;5058245;28;20048;-80
2023/06/18 10:58:01;;;;;;;10.25;8.63;;;26.80;99.90;;;;;;5027972;28;20131;-80
2023/06/18 11:00:35;;;;;;;9.90;7.72;;;27.00;99.90;;;;;;5054152;28;20068;-83
2023/06/18 11:03:03;;;;;;;12.02;8.73;;;27.10;99.90;;;;;;5064015;28;20411;-78
2023/06/18 11:05:34;;;;;;;10.57;8.18;;;27.10;99.90;;;;;;5064167;28;20071;-78
2023/06/18 11:08:12;;;;;;;10.20;7.72;;;27.10;99.90;;;;;;5040726;28;20504;-77
2023/06/18 11:10:47;;;;;;;13.68;8.63;;;27.20;99.90;;;;;;5044731;28;20063;-75
2023/06/18 11:13:13;;;;;;;12.13;8.48;;;27.40;99.90;;;;;;5061767;28;20040;-77
2023/06/18 11:16:02;;;;;;;10.80;7.97;;;27.50;99.90;;;;;;5063063;28;20028;-77
2023/06/18 11:18:29;;;;;;;11.15;8.00;;;27.60;99.90;;;;;;5063551;28;20418;-78
2023/06/18 11:20:56;;;;;;;8.45;7.57;;;27.70;99.90;;;;;;5050542;28;20046;-78
2023/06/18 11:23:26;;;;;;;12.27;7.20;;;27.70;99.90;;;;;;5062276;28;20048;-79
2023/06/18 11:25:53;;;;;;;9.32;7.00;;;27.80;99.90;;;;;;5044823;28;20032;-77
2023/06/18 11:28:20;;;;;;;8.85;7.22;;;27.90;99.90;;;;;;5065547;28;20391;-78
2023/06/18 11:31:02;;;;;;;9.55;6.95;;;28.00;99.90;;;;;;5061565;28;20407;-78
2023/06/18 11:33:29;;;;;;;;;;;28.00;99.90;;;;;;5061744;28;20033;-78
2023/06/18 11:36:07;;;;;;;9.23;6.57;;;28.00;99.90;;;;;;5053868;28;19928;-78
2023/06/18 11:38:33;;;;;;;10.60;7.78;;;27.90;99.90;;;;;;5033058;28;20041;-83
2023/06/18 11:40:58;;;;;;;8.88;7.28;;;27.80;99.90;;;;;;5055487;28;20048;-83
2023/06/18 11:43:24;;;;;;;7.32;5.88;;;27.80;99.90;;;;;;5060099;28;20037;-86
2023/06/18 11:45:51;;;;;;;10.07;6.90;;;27.80;99.90;;;;;;5036710;28;20473;-79
2023/06/18 11:48:21;;;;;;;11.50;7.80;;;27.80;99.90;;;;;;5042589;28;20094;-82
2023/06/18 11:50:53;;;;;;;10.88;7.30;;;27.80;99.90;;;;;;5059205;28;20063;-83
2023/06/18 11:53:20;;;;;;;10.93;7.30;;;27.90;99.90;;;;;;5041422;28;20075;-80
2023/06/18 11:55:46;;;;;;;9.00;7.25;;;28.10;99.90;;;;;;5046952;28;20550;-79
2023/06/18 11:58:12;;;;;;;10.05;7.30;;;28.40;99.90;;;;;;5044118;28;20086;-78
2023/06/18 12:00:38;;;;;;;12.05;6.88;;;28.50;99.90;;;;;;5064422;28;20049;-78
2023/06/18 12:03:04;;;;;;;9.93;6.50;;;28.40;99.90;;;;;;5059565;28;20138;-78
2023/06/18 12:05:36;;;;;;;11.70;6.60;;;28.50;99.90;;;;;;5050787;28;20049;-78
2023/06/18 12:08:13;;;;;;;9.30;6.82;;;28.60;99.90;;;;;;5040144;28;20106;-75
2023/06/18 12:10:43;;;;;;;10.98;6.80;;;28.60;99.90;;;;;;5055589;28;20036;-73
2023/06/18 12:13:29;;;;;;;7.47;6.15;;;28.70;99.90;;;;;;5036819;28;20048;-71
2023/06/18 12:16:07;;;;;;;8.23;6.63;;;28.70;99.90;;;;;;5051783;28;20060;-76
2023/06/18 12:18:41;;;;;;;10.80;5.97;;;28.50;99.70;;;;;;5062861;28;20049;-78
2023/06/18 12:21:07;;;;;;;9.57;5.97;;;28.40;99.70;;;;;;5060319;28;20074;-78
2023/06/18 12:23:37;;;;;;;6.68;5.95;;;28.40;99.50;;;;;;5060564;28;20495;-76
2023/06/18 12:26:04;;;;;;;8.63;6.18;;;28.30;99.80;;;;;;5039913;28;20508;-75
2023/06/18 12:28:33;;;;;;;8.63;5.80;;;28.30;98.80;;;;;;5043350;28;20123;-74
2023/06/18 12:31:06;;;;;;;6.35;5.20;;;28.30;98.50;;;;;;5059637;28;20059;-76
2023/06/18 12:33:37;;;;;;;11.77;6.05;;;28.40;99.30;;;;;;5044184;28;20059;-76
2023/06/18 12:36:04;;;;;;;8.77;5.27;;;28.50;99.40;;;;;;5032315;28;20875;-74
2023/06/18 12:38:39;;;;;;;9.77;6.30;;;28.50;99.00;;;;;;5024815;28;20287;-77
2023/06/18 12:41:04;;;;;;;8.07;5.93;;;28.50;98.30;;;;;;5063181;28;20062;-76
2023/06/18 12:43:38;;;;;;;10.30;5.57;;;28.50;99.30;;;;;;5057368;28;20071;-77
2023/06/18 12:46:03;;;;;;;8.90;5.57;;;28.50;99.60;;;;;;5052520;28;20101;-76
2023/06/18 12:48:29;;;;;;;5.93;5.40;;;28.50;99.70;;;;;;5056538;28;20049;-73
2023/06/18 12:50:55;;;;;;;8.18;5.50;;;28.60;97.70;;;;;;5059789;28;20135;-77
2023/06/18 12:53:26;;;;;;;7.05;5.60;;;28.50;98.30;;;;;;5037627;28;20045;-77
2023/06/18 12:55:54;;;;;;;12.00;6.15;;;28.60;99.00;;;;;;5037027;28;20056;-76
2023/06/18 12:58:22;;;;;;;6.47;5.10;;;28.60;98.70;;;;;;5055645;28;20059;-76
2023/06/18 13:00:49;;;;;;;8.05;5.63;;;28.60;98.90;;;;;;5036856;28;20099;-77
2023/06/18 13:03:16;;;;;;;8.10;5.13;;;28.60;98.10;;;;;;5055698;28;20036;-75
2023/06/18 13:05:43;;;;;;;8.20;5.75;;;28.60;98.60;;;;;;5055268;28;20178;-78
2023/06/18 13:08:18;;;;;;;14.90;5.50;;;28.70;98.90;;;;;;5031875;28;20055;-76
2023/06/18 13:10:49;;;;;;;6.47;5.60;;;28.80;97.80;;;;;;5052087;28;20041;-78
2023/06/18 13:13:19;;;;;;;9.57;6.50;;;28.90;97.90;;;;;;5055334;28;20090;-75
2023/06/18 13:15:46;;;;;;;7.15;5.63;;;29.10;98.50;;;;;;5050365;28;20119;-75